sensor_id;sensor_type;location;lat;lon;timestamp;pressure;altitude;pressure_sealevel;temperature;humidity
77770;BME280;66961;51.482;9.160;2023-07-31T00:02:03;98926.03;;;14.54;94.33
77770;BME280;66961;51.482;9.160;2023-07-31T00:04:28;98931.13;;;14.56;94.61
77770;BME280;66961;51.482;9.160;2023-07-31T00:06:53;98932.16;;;14.55;94.66
77770;BME280;66961;51.482;9.160;2023-07-31T00:09:19;98935.41;;;14.57;94.71
77770;BME280;66961;51.482;9.160;2023-07-31T00:11:44;98921.50;;;14.55;94.20
77770;BME280;66961;51.482;9.160;2023-07-31T00:14:09;98921.50;;;14.55;94.58
77770;BME280;66961;51.482;9.160;2023-07-31T00:16:34;98918.84;;;14.55;94.70
77770;BME280;66961;51.482;9.160;2023-07-31T00:19:00;98914.75;;;14.52;94.48
77770;BME280;66961;51.482;9.160;2023-07-31T00:21:25;98906.13;;;14.50;94.51
77770;BME280;66961;51.482;9.160;2023-07-31T00:23:50;98901.44;;;14.46;94.73
77770;BME280;66961;51.482;9.160;2023-07-31T00:26:15;98907.78;;;14.51;94.46
77770;BME280;66961;51.482;9.160;2023-07-31T00:28:41;98898.56;;;14.47;95.09
77770;BME280;66961;51.482;9.160;2023-07-31T00:31:06;98894.03;;;14.48;95.02
77770;BME280;66961;51.482;9.160;2023-07-31T00:33:31;98898.56;;;14.47;95.10
77770;BME280;66961;51.482;9.160;2023-07-31T00:35:57;98890.34;;;14.42;95.88
77770;BME280;66961;51.482;9.160;2023-07-31T00:38:22;98886.84;;;14.48;95.24
77770;BME280;66961;51.482;9.160;2023-07-31T00:40:47;98887.88;;;14.47;95.11
77770;BME280;66961;51.482;9.160;2023-07-31T00:43:12;98891.56;;;14.46;94.37
77770;BME280;66961;51.482;9.160;2023-07-31T00:45:38;98888.69;;;14.48;95.04
77770;BME280;66961;51.482;9.160;2023-07-31T00:48:04;98887.69;;;14.49;95.11
77770;BME280;66961;51.482;9.160;2023-07-31T00:50:30;98887.47;;;14.50;95.04
77770;BME280;66961;51.482;9.160;2023-07-31T00:52:55;98875.16;;;14.49;94.96
77770;BME280;66961;51.482;9.160;2023-07-31T00:55:20;98890.13;;;14.50;95.38
77770;BME280;66961;51.482;9.160;2023-07-31T00:57:46;98887.47;;;14.50;95.51
77770;BME280;66961;51.482;9.160;2023-07-31T01:00:11;98882.75;;;14.52;95.48
77770;BME280;66961;51.482;9.160;2023-07-31T01:02:37;98884.16;;;14.55;95.55
77770;BME280;66961;51.482;9.160;2023-07-31T01:05:03;98882.31;;;14.55;94.77
77770;BME280;66961;51.482;9.160;2023-07-31T01:07:45;98869.63;;;14.51;95.30
77770;BME280;66961;51.482;9.160;2023-07-31T01:10:21;98878.44;;;14.51;95.29
77770;BME280;66961;51.482;9.160;2023-07-31T01:12:50;98865.09;;;14.51;95.34
77770;BME280;66961;51.482;9.160;2023-07-31T01:15:17;98864.44;;;14.56;95.27
77770;BME280;66961;51.482;9.160;2023-07-31T01:17:43;98866.09;;;14.57;95.20
77770;BME280;66961;51.482;9.160;2023-07-31T01:20:20;98856.44;;;14.56;95.13
77770;BME280;66961;51.482;9.160;2023-07-31T01:26:05;98857.25;;;14.63;94.52
77770;BME280;66961;51.482;9.160;2023-07-31T01:31:15;98862.97;;;14.67;94.27
77770;BME280;66961;51.482;9.160;2023-07-31T01:33:41;98857.84;;;14.65;94.70
77770;BME280;66961;51.482;9.160;2023-07-31T01:36:07;98855.78;;;14.67;94.69
77770;BME280;66961;51.482;9.160;2023-07-31T01:38:33;98857.03;;;14.65;95.07
77770;BME280;66961;51.482;9.160;2023-07-31T01:40:58;98850.47;;;14.67;94.85
77770;BME280;66961;51.482;9.160;2023-07-31T01:43:23;98848.00;;;14.66;94.52
77770;BME280;66961;51.482;9.160;2023-07-31T01:45:49;98852.91;;;14.69;94.60
77770;BME280;66961;51.482;9.160;2023-07-31T01:48:14;98850.66;;;14.66;94.71
77770;BME280;66961;51.482;9.160;2023-07-31T01:50:39;98843.28;;;14.68;94.87
77770;BME280;66961;51.482;9.160;2023-07-31T01:53:04;98836.75;;;14.57;94.87
77770;BME280;66961;51.482;9.160;2023-07-31T01:55:30;98842.69;;;14.59;95.85
77770;BME280;66961;51.482;9.160;2023-07-31T01:57:55;98849.25;;;14.56;95.97
77770;BME280;66961;51.482;9.160;2023-07-31T02:00:20;98834.13;;;14.50;96.85
77770;BME280;66961;51.482;9.160;2023-07-31T02:02:45;98837.84;;;14.49;97.18
77770;BME280;66961;51.482;9.160;2023-07-31T02:05:11;98827.16;;;14.49;97.58
77770;BME280;66961;51.482;9.160;2023-07-31T02:07:36;98831.06;;;14.47;97.96
77770;BME280;66961;51.482;9.160;2023-07-31T02:10:01;98823.69;;;14.42;98.38
77770;BME280;66961;51.482;9.160;2023-07-31T02:12:26;98828.81;;;14.44;98.42
77770;BME280;66961;51.482;9.160;2023-07-31T02:14:52;98816.91;;;14.40;98.45
77770;BME280;66961;51.482;9.160;2023-07-31T02:17:17;98825.34;;;14.43;98.41
77770;BME280;66961;51.482;9.160;2023-07-31T02:19:42;98825.75;;;14.47;97.31
77770;BME280;66961;51.482;9.160;2023-07-31T02:22:07;98815.69;;;14.49;96.98
77770;BME280;66961;51.482;9.160;2023-07-31T02:24:33;98816.06;;;14.52;96.53
77770;BME280;66961;51.482;9.160;2023-07-31T02:26:58;98808.91;;;14.53;96.86
77770;BME280;66961;51.482;9.160;2023-07-31T02:29:23;98813.19;;;14.54;96.69
77770;BME280;66961;51.482;9.160;2023-07-31T02:31:49;98819.72;;;14.58;96.90
77770;BME280;66961;51.482;9.160;2023-07-31T02:34:14;98804.94;;;14.62;96.14
77770;BME280;66961;51.482;9.160;2023-07-31T02:36:39;98812.72;;;14.64;96.15
77770;BME280;66961;51.482;9.160;2023-07-31T02:39:04;98814.75;;;14.68;96.19
77770;BME280;66961;51.482;9.160;2023-07-31T02:41:30;98797.13;;;14.67;95.95
77770;BME280;66961;51.482;9.160;2023-07-31T02:43:55;98805.50;;;14.71;96.10
77770;BME280;66961;51.482;9.160;2023-07-31T02:46:20;98809.00;;;14.71;96.42
77770;BME280;66961;51.482;9.160;2023-07-31T02:48:46;98816.16;;;14.77;96.14
77770;BME280;66961;51.482;9.160;2023-07-31T02:51:11;98820.47;;;14.78;95.42
77770;BME280;66961;51.482;9.160;2023-07-31T02:53:36;98801.22;;;14.70;95.34
77770;BME280;66961;51.482;9.160;2023-07-31T02:56:02;98818.41;;;14.80;95.44
77770;BME280;66961;51.482;9.160;2023-07-31T02:58:27;98815.31;;;14.83;95.33
77770;BME280;66961;51.482;9.160;2023-07-31T03:00:52;98813.47;;;14.84;94.71
77770;BME280;66961;51.482;9.160;2023-07-31T03:03:17;98818.94;;;14.96;93.87
77770;BME280;66961;51.482;9.160;2023-07-31T03:05:43;98820.75;;;15.02;93.66
77770;BME280;66961;51.482;9.160;2023-07-31T03:08:08;98818.41;;;15.12;92.55
77770;BME280;66961;51.482;9.160;2023-07-31T03:10:33;98817.19;;;15.08;92.99
77770;BME280;66961;51.482;9.160;2023-07-31T03:12:58;98827.22;;;15.12;93.37
77770;BME280;66961;51.482;9.160;2023-07-31T03:15:24;98814.09;;;15.11;93.35
77770;BME280;66961;51.482;9.160;2023-07-31T03:17:49;98825.59;;;15.11;93.36
77770;BME280;66961;51.482;9.160;2023-07-31T03:20:14;98818.41;;;15.12;92.84
77770;BME280;66961;51.482;9.160;2023-07-31T03:22:39;98813.69;;;15.14;92.47
77770;BME280;66961;51.482;9.160;2023-07-31T03:25:05;98824.97;;;15.16;92.07
77770;BME280;66961;51.482;9.160;2023-07-31T03:27:30;98828.41;;;15.23;92.04
77770;BME280;66961;51.482;9.160;2023-07-31T03:29:56;98824.69;;;15.24;91.98
77770;BME280;66961;51.482;9.160;2023-07-31T03:32:21;98828.78;;;15.27;92.33
77770;BME280;66961;51.482;9.160;2023-07-31T03:34:46;98822.03;;;15.24;91.70
77770;BME280;66961;51.482;9.160;2023-07-31T03:37:12;98833.50;;;15.31;90.97
77770;BME280;66961;51.482;9.160;2023-07-31T03:39:37;98832.47;;;15.32;91.30
77770;BME280;66961;51.482;9.160;2023-07-31T03:42:03;98834.47;;;15.37;90.17
77770;BME280;66961;51.482;9.160;2023-07-31T03:44:28;98836.94;;;15.38;90.86
77770;BME280;66961;51.482;9.160;2023-07-31T03:46:53;98838.91;;;15.49;88.03
77770;BME280;66961;51.482;9.160;2023-07-31T03:49:19;98834.56;;;15.55;87.83
77770;BME280;66961;51.482;9.160;2023-07-31T03:51:44;98831.06;;;15.54;87.62
77770;BME280;66961;51.482;9.160;2023-07-31T03:54:09;98831.69;;;15.57;87.70
77770;BME280;66961;51.482;9.160;2023-07-31T03:56:35;98830.66;;;15.58;87.83
77770;BME280;66961;51.482;9.160;2023-07-31T03:59:00;98841.75;;;15.54;88.27
77770;BME280;66961;51.482;9.160;2023-07-31T04:01:26;98832.94;;;15.54;88.33
77770;BME280;66961;51.482;9.160;2023-07-31T04:03:51;98839.09;;;15.54;87.70
77770;BME280;66961;51.482;9.160;2023-07-31T04:06:17;98838.88;;;15.56;87.74
77770;BME280;66961;51.482;9.160;2023-07-31T04:08:42;98840.13;;;15.53;87.85
77770;BME280;66961;51.482;9.160;2023-07-31T04:11:07;98837.66;;;15.59;86.84
77770;BME280;66961;51.482;9.160;2023-07-31T04:13:32;98827.78;;;15.59;87.43
77770;BME280;66961;51.482;9.160;2023-07-31T04:15:58;98832.31;;;15.59;87.07
77770;BME280;66961;51.482;9.160;2023-07-31T04:18:24;98820.22;;;15.49;87.64
77770;BME280;66961;51.482;9.160;2023-07-31T04:20:50;98825.72;;;15.54;87.28
77770;BME280;66961;51.482;9.160;2023-07-31T04:23:15;98829.13;;;15.68;84.68
77770;BME280;66961;51.482;9.160;2023-07-31T04:25:40;98824.16;;;15.72;85.49
77770;BME280;66961;51.482;9.160;2023-07-31T04:28:06;98824.16;;;15.72;84.71
77770;BME280;66961;51.482;9.160;2023-07-31T04:30:31;98830.25;;;15.79;83.51
77770;BME280;66961;51.482;9.160;2023-07-31T04:32:56;98825.09;;;15.84;82.44
77770;BME280;66961;51.482;9.160;2023-07-31T04:35:21;98832.88;;;15.85;82.88
77770;BME280;66961;51.482;9.160;2023-07-31T04:37:47;98827.91;;;15.89;82.91
77770;BME280;66961;51.482;9.160;2023-07-31T04:40:12;98825.84;;;15.91;81.80
77770;BME280;66961;51.482;9.160;2023-07-31T04:42:37;98830.16;;;15.92;82.48
77770;BME280;66961;51.482;9.160;2023-07-31T04:45:03;98819.03;;;15.95;81.31
77770;BME280;66961;51.482;9.160;2023-07-31T04:47:28;98835.88;;;15.96;80.58
77770;BME280;66961;51.482;9.160;2023-07-31T04:49:53;98814.22;;;16.04;80.09
77770;BME280;66961;51.482;9.160;2023-07-31T04:52:19;98833.53;;;16.06;79.41
77770;BME280;66961;51.482;9.160;2023-07-31T04:54:44;98822.44;;;16.02;79.23
77770;BME280;66961;51.482;9.160;2023-07-31T04:57:09;98817.09;;;16.02;79.55
77770;BME280;66961;51.482;9.160;2023-07-31T04:59:34;98822.44;;;16.02;79.24
77770;BME280;66961;51.482;9.160;2023-07-31T05:02:00;98819.34;;;16.05;79.05
77770;BME280;66961;51.482;9.160;2023-07-31T05:04:25;98830.41;;;16.09;78.12
77770;BME280;66961;51.482;9.160;2023-07-31T05:06:50;98835.53;;;16.10;77.88
77770;BME280;66961;51.482;9.160;2023-07-31T05:09:16;98820.31;;;16.11;78.50
77770;BME280;66961;51.482;9.160;2023-07-31T05:11:41;98831.34;;;16.14;78.26
77770;BME280;66961;51.482;9.160;2023-07-31T05:14:06;98835.66;;;16.15;78.15
77770;BME280;66961;51.482;9.160;2023-07-31T05:16:31;98825.94;;;16.21;77.72
77770;BME280;66961;51.482;9.160;2023-07-31T05:18:57;98819.56;;;16.22;78.01
77770;BME280;66961;51.482;9.160;2023-07-31T05:21:22;98810.28;;;16.25;77.76
77770;BME280;66961;51.482;9.160;2023-07-31T05:23:47;98811.91;;;16.26;77.92
77770;BME280;66961;51.482;9.160;2023-07-31T05:26:13;98809.44;;;16.24;77.86
77770;BME280;66961;51.482;9.160;2023-07-31T05:28:38;98812.13;;;16.24;77.86
77770;BME280;66961;51.482;9.160;2023-07-31T05:31:04;98811.53;;;16.22;78.43
77770;BME280;66961;51.482;9.160;2023-07-31T05:33:30;98807.38;;;16.26;77.08
77770;BME280;66961;51.482;9.160;2023-07-31T05:35:55;98812.72;;;16.26;77.41
77770;BME280;66961;51.482;9.160;2023-07-31T05:38:20;98812.06;;;16.31;77.24
77770;BME280;66961;51.482;9.160;2023-07-31T05:40:46;98819.03;;;16.32;77.78
77770;BME280;66961;51.482;9.160;2023-07-31T05:43:12;98816.97;;;16.34;77.50
77770;BME280;66961;51.482;9.160;2023-07-31T05:45:37;98814.06;;;16.35;77.18
77770;BME280;66961;51.482;9.160;2023-07-31T05:48:03;98806.19;;;16.40;77.34
77770;BME280;66961;51.482;9.160;2023-07-31T05:50:30;98811.31;;;16.42;76.69
77770;BME280;66961;51.482;9.160;2023-07-31T05:52:55;98823.34;;;16.51;76.77
77770;BME280;66961;51.482;9.160;2023-07-31T05:55:20;98807.81;;;16.60;76.38
77770;BME280;66961;51.482;9.160;2023-07-31T05:57:46;98811.91;;;16.62;76.66
77770;BME280;66961;51.482;9.160;2023-07-31T06:00:12;98806.69;;;16.67;75.64
77770;BME280;66961;51.482;9.160;2023-07-31T06:02:37;98817.09;;;16.75;75.53
77770;BME280;66961;51.482;9.160;2023-07-31T06:05:04;98803.34;;;16.72;75.41
77770;BME280;66961;51.482;9.160;2023-07-31T06:07:30;98806.63;;;16.74;75.05
77770;BME280;66961;51.482;9.160;2023-07-31T06:09:55;98812.78;;;16.74;75.40
77770;BME280;66961;51.482;9.160;2023-07-31T06:12:20;98813.81;;;16.73;75.29
77770;BME280;66961;51.482;9.160;2023-07-31T06:14:46;98818.38;;;16.73;75.78
77770;BME280;66961;51.482;9.160;2023-07-31T06:17:11;98800.16;;;16.63;76.11
77770;BME280;66961;51.482;9.160;2023-07-31T06:19:36;98814.28;;;16.70;76.04
77770;BME280;66961;51.482;9.160;2023-07-31T06:22:02;98811.00;;;16.68;76.30
77770;BME280;66961;51.482;9.160;2023-07-31T06:24:28;98809.81;;;16.64;77.21
77770;BME280;66961;51.482;9.160;2023-07-31T06:26:53;98817.84;;;16.64;77.93
77770;BME280;66961;51.482;9.160;2023-07-31T06:29:18;98799.13;;;16.46;78.21
77770;BME280;66961;51.482;9.160;2023-07-31T06:31:44;98805.53;;;16.45;78.92
77770;BME280;66961;51.482;9.160;2023-07-31T06:34:09;98811.53;;;16.22;81.22
77770;BME280;66961;51.482;9.160;2023-07-31T06:36:34;98807.16;;;16.09;83.00
77770;BME280;66961;51.482;9.160;2023-07-31T06:38:59;98801.72;;;15.98;83.14
77770;BME280;66961;51.482;9.160;2023-07-31T06:41:25;98809.81;;;15.91;84.26
77770;BME280;66961;51.482;9.160;2023-07-31T06:43:50;98802.00;;;15.89;85.22
77770;BME280;66961;51.482;9.160;2023-07-31T06:46:15;98799.63;;;15.81;86.42
77770;BME280;66961;51.482;9.160;2023-07-31T06:48:40;98799.22;;;15.78;87.27
77770;BME280;66961;51.482;9.160;2023-07-31T06:51:06;98797.81;;;15.75;88.55
77770;BME280;66961;51.482;9.160;2023-07-31T06:53:31;98803.06;;;15.64;90.84
77770;BME280;66961;51.482;9.160;2023-07-31T06:55:56;98798.97;;;15.61;90.77
77770;BME280;66961;51.482;9.160;2023-07-31T06:58:21;98788.88;;;15.63;91.29
77770;BME280;66961;51.482;9.160;2023-07-31T07:00:47;98798.63;;;15.58;91.39
77770;BME280;66961;51.482;9.160;2023-07-31T07:03:12;98806.88;;;15.49;91.85
77770;BME280;66961;51.482;9.160;2023-07-31T07:05:37;98802.78;;;15.47;92.27
77770;BME280;66961;51.482;9.160;2023-07-31T07:08:03;98792.53;;;15.44;92.27
77770;BME280;66961;51.482;9.160;2023-07-31T07:10:28;98795.38;;;15.49;93.33
77770;BME280;66961;51.482;9.160;2023-07-31T07:12:54;98800.38;;;15.64;93.55
77770;BME280;66961;51.482;9.160;2023-07-31T07:15:19;98797.72;;;15.64;93.50
77770;BME280;66961;51.482;9.160;2023-07-31T07:17:45;98792.31;;;15.70;94.17
77770;BME280;66961;51.482;9.160;2023-07-31T07:20:10;98783.88;;;15.73;93.90
77770;BME280;66961;51.482;9.160;2023-07-31T07:22:35;98771.41;;;15.85;94.22
77770;BME280;66961;51.482;9.160;2023-07-31T07:25:01;98788.00;;;15.94;93.25
77770;BME280;66961;51.482;9.160;2023-07-31T07:27:26;98791.63;;;16.00;93.01
77770;BME280;66961;51.482;9.160;2023-07-31T07:29:52;98791.47;;;15.95;93.17
77770;BME280;66961;51.482;9.160;2023-07-31T07:32:17;98789.25;;;15.92;92.29
77770;BME280;66961;51.482;9.160;2023-07-31T07:34:42;98786.34;;;15.93;93.50
77770;BME280;66961;51.482;9.160;2023-07-31T07:37:07;98786.19;;;15.88;94.03
77770;BME280;66961;51.482;9.160;2023-07-31T07:39:33;98772.03;;;15.87;94.15
77770;BME280;66961;51.482;9.160;2023-07-31T07:41:58;98775.63;;;15.75;94.10
77770;BME280;66961;51.482;9.160;2023-07-31T07:44:23;98764.72;;;15.76;94.84
77770;BME280;66961;51.482;9.160;2023-07-31T07:46:49;98767.78;;;15.80;95.01
77770;BME280;66961;51.482;9.160;2023-07-31T07:49:14;98763.84;;;15.82;94.19
77770;BME280;66961;51.482;9.160;2023-07-31T07:51:39;98762.44;;;15.80;93.95
77770;BME280;66961;51.482;9.160;2023-07-31T07:54:04;98751.00;;;15.91;94.52
77770;BME280;66961;51.482;9.160;2023-07-31T07:56:30;98757.09;;;15.98;93.50
77770;BME280;66961;51.482;9.160;2023-07-31T07:58:55;98737.38;;;15.99;93.74
77770;BME280;66961;51.482;9.160;2023-07-31T08:01:20;98753.31;;;16.24;92.80
77770;BME280;66961;51.482;9.160;2023-07-31T08:03:49;98744.84;;;16.27;91.06
77770;BME280;66961;51.482;9.160;2023-07-31T08:06:15;98746.91;;;16.25;91.62
77770;BME280;66961;51.482;9.160;2023-07-31T08:08:40;98750.63;;;16.24;91.63
77770;BME280;66961;51.482;9.160;2023-07-31T08:11:06;98742.81;;;16.22;90.57
77770;BME280;66961;51.482;9.160;2023-07-31T08:13:31;98753.22;;;16.31;89.52
77770;BME280;66961;51.482;9.160;2023-07-31T08:15:57;98756.28;;;16.34;89.70
77770;BME280;66961;51.482;9.160;2023-07-31T08:18:22;98733.63;;;16.37;89.38
77770;BME280;66961;51.482;9.160;2023-07-31T08:20:47;98745.91;;;16.56;88.65
77770;BME280;66961;51.482;9.160;2023-07-31T08:23:13;98730.00;;;16.61;88.63
77770;BME280;66961;51.482;9.160;2023-07-31T08:25:38;98737.28;;;16.72;87.75
77770;BME280;66961;51.482;9.160;2023-07-31T08:28:04;98740.44;;;16.81;87.00
77770;BME280;66961;51.482;9.160;2023-07-31T08:30:30;98741.41;;;16.86;86.71
77770;BME280;66961;51.482;9.160;2023-07-31T08:32:55;98740.34;;;16.87;87.10
77770;BME280;66961;51.482;9.160;2023-07-31T08:35:21;98745.47;;;16.89;86.40
77770;BME280;66961;51.482;9.160;2023-07-31T08:37:46;98745.94;;;16.86;85.89
77770;BME280;66961;51.482;9.160;2023-07-31T08:40:11;98748.16;;;16.89;85.60
77770;BME280;66961;51.482;9.160;2023-07-31T08:42:44;98746.06;;;16.91;85.77
77770;BME280;66961;51.482;9.160;2023-07-31T08:45:13;98739.16;;;16.83;85.50
77770;BME280;66961;51.482;9.160;2023-07-31T08:47:39;98746.53;;;16.88;86.13
77770;BME280;66961;51.482;9.160;2023-07-31T08:50:05;98738.84;;;16.92;87.15
77770;BME280;66961;51.482;9.160;2023-07-31T08:52:30;98730.47;;;16.88;86.99
77770;BME280;66961;51.482;9.160;2023-07-31T08:54:56;98734.78;;;16.89;87.45
77770;BME280;66961;51.482;9.160;2023-07-31T08:57:21;98735.25;;;16.98;86.81
77770;BME280;66961;51.482;9.160;2023-07-31T08:59:46;98731.22;;;17.07;86.57
77770;BME280;66961;51.482;9.160;2023-07-31T09:02:12;98734.34;;;17.04;87.75
77770;BME280;66961;51.482;9.160;2023-07-31T09:04:38;98731.69;;;17.04;85.89
77770;BME280;66961;51.482;9.160;2023-07-31T09:07:05;98722.94;;;16.97;85.56
77770;BME280;66961;51.482;9.160;2023-07-31T09:09:31;98722.00;;;17.03;86.42
77770;BME280;66961;51.482;9.160;2023-07-31T09:11:57;98724.81;;;17.08;86.53
77770;BME280;66961;51.482;9.160;2023-07-31T09:14:24;98721.91;;;17.09;86.27
77770;BME280;66961;51.482;9.160;2023-07-31T09:16:57;98721.19;;;17.02;85.67
77770;BME280;66961;51.482;9.160;2023-07-31T09:19:29;98716.19;;;17.06;85.82
77770;BME280;66961;51.482;9.160;2023-07-31T09:21:55;98715.38;;;17.17;85.57
77770;BME280;66961;51.482;9.160;2023-07-31T09:24:30;98709.69;;;17.25;85.43
77770;BME280;66961;51.482;9.160;2023-07-31T09:26:57;98714.69;;;17.33;86.11
77770;BME280;66961;51.482;9.160;2023-07-31T09:29:23;98716.00;;;17.42;85.20
77770;BME280;66961;51.482;9.160;2023-07-31T09:31:48;98712.75;;;17.52;84.86
77770;BME280;66961;51.482;9.160;2023-07-31T09:34:13;98721.47;;;17.71;85.34
77770;BME280;66961;51.482;9.160;2023-07-31T09:36:40;98717.63;;;17.90;83.86
77770;BME280;66961;51.482;9.160;2023-07-31T09:39:11;98714.94;;;18.02;81.45
77770;BME280;66961;51.482;9.160;2023-07-31T09:41:40;98714.34;;;18.40;81.97
77770;BME280;66961;51.482;9.160;2023-07-31T09:44:06;98712.13;;;18.37;83.15
77770;BME280;66961;51.482;9.160;2023-07-31T09:46:35;98707.16;;;18.57;82.22
77770;BME280;66961;51.482;9.160;2023-07-31T09:49:10;98712.75;;;18.84;80.60
77770;BME280;66961;51.482;9.160;2023-07-31T09:51:37;98701.03;;;18.73;80.37
77770;BME280;66961;51.482;9.160;2023-07-31T09:54:03;98702.66;;;18.74;78.78
77770;BME280;66961;51.482;9.160;2023-07-31T09:56:28;98701.78;;;18.57;81.03
77770;BME280;66961;51.482;9.160;2023-07-31T09:58:55;98691.22;;;18.50;82.76
77770;BME280;66961;51.482;9.160;2023-07-31T10:01:20;98687.22;;;18.25;83.17
77770;BME280;66961;51.482;9.160;2023-07-31T10:03:46;98692.00;;;18.23;84.34
77770;BME280;66961;51.482;9.160;2023-07-31T10:06:12;98687.63;;;18.05;84.51
77770;BME280;66961;51.482;9.160;2023-07-31T10:08:39;98692.88;;;18.11;84.78
77770;BME280;66961;51.482;9.160;2023-07-31T10:11:05;98683.06;;;18.17;85.39
77770;BME280;66961;51.482;9.160;2023-07-31T10:13:33;98696.66;;;17.87;85.16
77770;BME280;66961;51.482;9.160;2023-07-31T10:15:59;98688.84;;;17.85;85.03
77770;BME280;66961;51.482;9.160;2023-07-31T10:18:25;98693.88;;;17.70;86.58
77770;BME280;66961;51.482;9.160;2023-07-31T10:20:53;98683.72;;;17.72;85.45
77770;BME280;66961;51.482;9.160;2023-07-31T10:23:20;98675.69;;;17.61;84.83
77770;BME280;66961;51.482;9.160;2023-07-31T10:25:45;98682.56;;;17.68;85.34
77770;BME280;66961;51.482;9.160;2023-07-31T10:28:12;98682.56;;;17.80;84.04
77770;BME280;66961;51.482;9.160;2023-07-31T10:30:37;98686.63;;;17.82;85.58
77770;BME280;66961;51.482;9.160;2023-07-31T10:33:05;98670.16;;;18.02;84.62
77770;BME280;66961;51.482;9.160;2023-07-31T10:35:31;98672.09;;;18.18;84.44
77770;BME280;66961;51.482;9.160;2023-07-31T10:38:09;98662.44;;;18.34;82.70
77770;BME280;66961;51.482;9.160;2023-07-31T10:40:35;98660.06;;;18.49;81.21
77770;BME280;66961;51.482;9.160;2023-07-31T10:43:00;98657.44;;;18.66;79.37
77770;BME280;66961;51.482;9.160;2023-07-31T10:45:33;98647.53;;;18.67;79.00
77770;BME280;66961;51.482;9.160;2023-07-31T10:48:07;98645.72;;;18.72;78.12
77770;BME280;66961;51.482;9.160;2023-07-31T10:50:38;98641.34;;;18.83;77.29
77770;BME280;66961;51.482;9.160;2023-07-31T10:53:03;98640.28;;;18.84;76.48
77770;BME280;66961;51.482;9.160;2023-07-31T10:55:41;98648.56;;;18.82;77.84
77770;BME280;66961;51.482;9.160;2023-07-31T10:58:09;98642.72;;;18.69;78.50
77770;BME280;66961;51.482;9.160;2023-07-31T11:00:37;98635.75;;;18.56;78.16
77770;BME280;66961;51.482;9.160;2023-07-31T11:03:05;98643.13;;;18.61;78.14
77770;BME280;66961;51.482;9.160;2023-07-31T11:05:50;98651.50;;;18.81;77.63
77770;BME280;66961;51.482;9.160;2023-07-31T11:11:08;98646.13;;;18.81;76.84
77770;BME280;66961;51.482;9.160;2023-07-31T11:13:41;98645.06;;;18.82;77.68
77770;BME280;66961;51.482;9.160;2023-07-31T11:16:06;98628.88;;;18.60;76.83
77770;BME280;66961;51.482;9.160;2023-07-31T11:18:32;98649.41;;;18.66;76.94
77770;BME280;66961;51.482;9.160;2023-07-31T11:20:57;98630.97;;;18.58;78.86
77770;BME280;66961;51.482;9.160;2023-07-31T11:23:23;98627.22;;;18.59;77.32
77770;BME280;66961;51.482;9.160;2023-07-31T11:25:49;98628.44;;;18.51;78.69
77770;BME280;66961;51.482;9.160;2023-07-31T11:28:15;98626.19;;;18.60;77.09
77770;BME280;66961;51.482;9.160;2023-07-31T11:30:42;98636.97;;;18.48;76.58
77770;BME280;66961;51.482;9.160;2023-07-31T11:33:09;98638.25;;;18.46;76.34
77770;BME280;66961;51.482;9.160;2023-07-31T11:35:40;98651.16;;;18.32;77.25
77770;BME280;66961;51.482;9.160;2023-07-31T11:38:06;98661.19;;;18.25;78.72
77770;BME280;66961;51.482;9.160;2023-07-31T11:40:31;98648.59;;;17.97;81.50
77770;BME280;66961;51.482;9.160;2023-07-31T11:42:58;98644.81;;;17.70;84.46
77770;BME280;66961;51.482;9.160;2023-07-31T11:45:26;98640.38;;;17.64;84.09
77770;BME280;66961;51.482;9.160;2023-07-31T11:47:51;98642.97;;;17.59;84.15
77770;BME280;66961;51.482;9.160;2023-07-31T11:50:16;98646.78;;;17.74;84.49
77770;BME280;66961;51.482;9.160;2023-07-31T11:52:44;98654.94;;;17.79;83.65
77770;BME280;66961;51.482;9.160;2023-07-31T11:55:11;98648.75;;;17.79;82.23
77770;BME280;66961;51.482;9.160;2023-07-31T11:57:39;98640.81;;;17.84;82.44
77770;BME280;66961;51.482;9.160;2023-07-31T12:00:07;98645.47;;;17.89;84.74
77770;BME280;66961;51.482;9.160;2023-07-31T12:02:33;98639.63;;;18.03;83.56
77770;BME280;66961;51.482;9.160;2023-07-31T12:04:59;98632.50;;;18.26;81.63
77770;BME280;66961;51.482;9.160;2023-07-31T12:07:24;98627.81;;;18.33;80.47
77770;BME280;66961;51.482;9.160;2023-07-31T12:09:54;98617.75;;;18.40;79.77
77770;BME280;66961;51.482;9.160;2023-07-31T12:12:21;98631.56;;;18.32;79.53
77770;BME280;66961;51.482;9.160;2023-07-31T12:14:46;98629.69;;;18.32;81.18
77770;BME280;66961;51.482;9.160;2023-07-31T12:17:12;98626.56;;;18.24;82.07
77770;BME280;66961;51.482;9.160;2023-07-31T12:19:37;98624.38;;;18.20;81.67
77770;BME280;66961;51.482;9.160;2023-07-31T12:22:14;98629.41;;;18.45;81.71
77770;BME280;66961;51.482;9.160;2023-07-31T12:24:41;98624.19;;;18.67;81.57
77770;BME280;66961;51.482;9.160;2023-07-31T12:27:14;98614.00;;;18.69;79.81
77770;BME280;66961;51.482;9.160;2023-07-31T12:29:41;98626.56;;;18.52;81.18
77770;BME280;66961;51.482;9.160;2023-07-31T12:32:25;98608.44;;;18.59;79.78
77770;BME280;66961;51.482;9.160;2023-07-31T12:34:51;98612.63;;;18.38;82.30
77770;BME280;66961;51.482;9.160;2023-07-31T12:37:17;98607.59;;;18.42;81.24
77770;BME280;66961;51.482;9.160;2023-07-31T12:39:42;98624.53;;;18.59;81.06
77770;BME280;66961;51.482;9.160;2023-07-31T12:42:07;98609.13;;;18.38;82.62
77770;BME280;66961;51.482;9.160;2023-07-31T12:44:33;98589.69;;;18.31;80.92
77770;BME280;66961;51.482;9.160;2023-07-31T12:46:58;98602.22;;;18.42;81.37
77770;BME280;66961;51.482;9.160;2023-07-31T12:49:23;98606.63;;;18.48;81.04
77770;BME280;66961;51.482;9.160;2023-07-31T12:51:48;98595.72;;;18.38;81.69
77770;BME280;66961;51.482;9.160;2023-07-31T12:54:14;98602.72;;;18.39;80.12
77770;BME280;66961;51.482;9.160;2023-07-31T12:56:40;98601.47;;;18.30;80.33
77770;BME280;66961;51.482;9.160;2023-07-31T12:59:05;98597.25;;;18.62;78.29
77770;BME280;66961;51.482;9.160;2023-07-31T13:01:30;98588.13;;;18.97;78.34
77770;BME280;66961;51.482;9.160;2023-07-31T13:03:55;98579.56;;;19.38;77.63